High Level, Canada
Current Conditions -  °F | °C
As of 3:26 PM on Sunday 25 Jan 2015 (Local Time) from CYOJ Reporting Station
Broken Clouds Broken Clouds  
Wind Chill:   Ceiling: 1100
Heat Index: 21°   Visibility: 12mi
Dew Point: 19°   Wind: 12mph
Humidity: 93%   Direction: 360°N
Pressure: 29.62"   Gusts: NA
Location:  58.52°N, 117.13°W
Report Text: CYOJ 252226Z 36010KT 12SM BKN011 BKN090 M06/M07 A2962 RMK SC6AC1 WND ESTD SLP054
Loading
Personal Weather Stations






























Interactive Weather Map New forecast layout! Learn more

10-Day Weather Forecast

Advertisements
Track Severe Weather on mobile